createdAt,value
2018-07-03T11:32:51.686Z,1.20
2018-07-03T11:35:19.726Z,1.37
2018-07-03T11:37:48.004Z,1.00
2018-07-03T11:40:16.085Z,1.30
2018-07-03T11:42:44.190Z,1.33
2018-07-03T11:45:12.450Z,1.10
2018-07-03T11:47:40.547Z,1.30
2018-07-03T11:50:08.793Z,1.40
2018-07-03T11:52:37.486Z,1.43
2018-07-03T11:55:05.642Z,1.10
2018-07-03T11:57:33.845Z,1.10
2018-07-03T12:00:03.143Z,1.00
2018-07-03T12:02:31.506Z,1.27
2018-07-03T12:04:59.725Z,1.00
2018-07-03T12:07:27.745Z,1.10
2018-07-03T12:09:55.638Z,1.50
2018-07-03T12:12:23.714Z,1.10
2018-07-03T12:14:51.865Z,1.50
2018-07-03T12:17:20.077Z,1.17
2018-07-03T12:19:48.256Z,1.03
2018-07-03T12:22:16.497Z,0.90
2018-07-03T12:24:44.812Z,1.30
2018-07-03T12:27:13.071Z,1.50
2018-07-03T12:29:41.353Z,1.23
2018-07-03T12:32:09.557Z,1.40
2018-07-03T12:34:37.589Z,1.30
2018-07-03T12:37:05.797Z,1.50
2018-07-03T12:39:33.957Z,1.57
2018-07-03T12:42:02.000Z,1.60
2018-07-03T12:44:29.889Z,1.50
2018-07-03T12:46:58.270Z,1.57
2018-07-03T12:49:26.486Z,1.92
2018-07-03T12:51:54.632Z,1.40
2018-07-03T12:54:23.089Z,1.67
2018-07-03T12:56:51.305Z,1.37
2018-07-03T12:59:19.369Z,1.32
2018-07-03T13:01:47.440Z,1.50
2018-07-03T13:04:15.699Z,1.50
2018-07-03T13:06:43.782Z,1.23
2018-07-03T13:09:12.313Z,1.10
2018-07-03T13:11:40.641Z,1.70
2018-07-03T13:14:08.931Z,1.80
2018-07-03T13:16:37.102Z,1.40
2018-07-03T13:19:05.269Z,1.57
2018-07-03T13:21:33.322Z,1.30
2018-07-03T13:24:01.446Z,2.10
2018-07-03T13:26:29.569Z,1.90
2018-07-03T13:28:57.885Z,1.50
2018-07-03T13:31:26.055Z,1.53
2018-07-03T13:33:54.106Z,1.70
2018-07-03T13:36:22.349Z,1.70
2018-07-03T13:38:50.360Z,1.50
2018-07-03T13:41:18.442Z,1.70
2018-07-03T13:43:46.493Z,1.30
2018-07-03T13:46:14.601Z,1.80
2018-07-03T13:48:42.869Z,2.10
2018-07-03T13:51:10.977Z,1.83
2018-07-03T13:53:39.101Z,1.70
2018-07-03T13:56:07.204Z,1.37
2018-07-03T13:58:35.251Z,2.23
2018-07-03T14:01:03.409Z,1.70
2018-07-03T14:03:31.732Z,1.60
2018-07-03T14:05:59.768Z,1.77
2018-07-03T14:08:27.976Z,1.90
2018-07-03T14:10:56.033Z,1.90
2018-07-03T14:13:24.185Z,1.53
2018-07-03T14:15:52.314Z,1.60
2018-07-03T14:18:24.440Z,1.60
2018-07-03T14:20:53.193Z,2.10
2018-07-03T14:23:21.166Z,1.90
2018-07-03T14:25:49.185Z,2.00
2018-07-03T14:28:17.544Z,1.93
2018-07-03T14:30:45.861Z,1.87
2018-07-03T14:33:13.928Z,1.77
2018-07-03T14:35:41.972Z,1.70
2018-07-03T14:38:10.053Z,1.70
2018-07-03T14:40:38.249Z,2.03
2018-07-03T14:43:06.391Z,1.57
2018-07-03T14:45:34.497Z,1.27
2018-07-03T14:48:02.635Z,1.87
2018-07-03T14:50:30.528Z,1.90
2018-07-03T14:52:58.689Z,1.63
2018-07-03T14:55:26.860Z,1.83
2018-07-03T14:57:54.956Z,2.10
2018-07-03T15:00:23.005Z,1.50
2018-07-03T15:02:51.236Z,1.80
2018-07-03T15:05:19.384Z,1.93
2018-07-03T15:07:47.500Z,2.00
2018-07-03T15:10:15.652Z,1.90
2018-07-03T15:12:43.813Z,1.67
2018-07-03T15:15:12.077Z,2.40
2018-07-03T15:17:40.177Z,1.80
2018-07-03T15:20:08.344Z,2.10
2018-07-03T15:22:36.501Z,1.97
2018-07-03T15:25:04.693Z,1.97
2018-07-03T15:27:32.765Z,2.07
2018-07-03T15:30:00.827Z,1.93
2018-07-03T15:32:28.904Z,1.60
2018-07-03T15:34:56.962Z,2.07
2018-07-03T15:37:25.012Z,2.03
2018-07-03T15:39:52.988Z,2.13
2018-07-03T15:42:21.073Z,2.00
2018-07-03T15:45:11.080Z,2.13
2018-07-03T15:47:39.128Z,2.00
2018-07-03T15:50:08.412Z,1.73
2018-07-03T15:52:36.231Z,1.90
2018-07-03T15:55:04.575Z,2.20
2018-07-03T15:57:32.482Z,2.10
2018-07-03T16:00:03.507Z,1.97
2018-07-03T16:02:31.507Z,2.20
2018-07-03T16:05:12.449Z,1.83
2018-07-03T16:09:56.720Z,2.20
2018-07-03T21:22:56.337Z,9.95
2018-07-03T21:25:45.105Z,9.47
2018-07-03T21:28:36.227Z,9.55
2018-07-03T21:31:17.460Z,8.85
2018-07-03T21:34:01.809Z,9.53
2018-07-03T21:36:42.644Z,9.50
2018-07-03T21:39:32.137Z,9.20
2018-07-03T21:42:16.409Z,9.03
2018-07-03T21:45:05.308Z,9.98
2018-07-03T21:48:01.275Z,8.73
2018-07-03T21:50:55.109Z,9.43
2018-07-03T21:53:47.255Z,9.10
2018-07-03T21:56:36.332Z,9.90
2018-07-03T21:59:20.354Z,9.90
2018-07-03T22:02:04.414Z,9.50
2018-07-03T22:04:50.638Z,9.90
2018-07-03T22:07:40.044Z,9.60
2018-07-03T22:10:21.735Z,9.70
2018-07-03T22:13:07.661Z,9.58
2018-07-03T22:16:00.529Z,10.58
2018-07-03T22:21:37.755Z,10.25
2018-07-03T22:24:23.772Z,10.70
2018-07-03T22:27:06.056Z,10.23
2018-07-03T22:29:52.931Z,9.75
2018-07-03T22:32:33.729Z,9.75
2018-07-03T22:35:27.781Z,9.95
2018-07-03T22:38:18.639Z,9.48
2018-07-03T22:41:02.951Z,10.00
2018-07-03T22:43:44.061Z,11.30
2018-07-03T22:46:26.816Z,10.20
2018-07-03T22:49:14.238Z,9.98
2018-07-03T22:52:05.512Z,10.20
2018-07-03T22:54:50.980Z,10.23
2018-07-03T22:57:35.235Z,10.10
2018-07-03T23:00:09.810Z,10.75
2018-07-03T23:02:40.547Z,9.63
2018-07-03T23:05:11.615Z,9.75
2018-07-03T23:07:41.953Z,10.35
2018-07-03T23:10:23.195Z,9.53
2018-07-03T23:13:01.281Z,9.65
2018-07-03T23:15:41.760Z,10.43
2018-07-03T23:18:13.454Z,9.90
2018-07-03T23:20:44.459Z,10.53
2018-07-03T23:23:22.710Z,9.78
2018-07-03T23:25:53.741Z,8.90
2018-07-03T23:28:33.418Z,9.78
2018-07-03T23:31:06.983Z,10.30
2018-07-03T23:33:37.472Z,10.30
2018-07-03T23:36:08.000Z,10.50
2018-07-03T23:38:38.236Z,10.50
2018-07-03T23:41:09.216Z,10.40
2018-07-03T23:43:39.922Z,9.50
2018-07-03T23:46:10.183Z,9.55
2018-07-03T23:48:46.547Z,8.80
2018-07-03T23:51:22.914Z,9.25
2018-07-03T23:54:04.877Z,9.65
2018-07-03T23:56:46.871Z,9.93
2018-07-03T23:59:29.361Z,10.90
